sensor_id;sensor_type;location;lat;lon;timestamp;pressure;altitude;pressure_sealevel;temperature;humidity
13765;BME280;6953;48.810;9.204;2023-03-19T00:01:09;98222.34;;;11.27;80.70
13765;BME280;6953;48.810;9.204;2023-03-19T00:03:34;98109.50;;;10.59;80.37
13765;BME280;6953;48.810;9.204;2023-03-19T00:06:00;98235.81;;;11.35;80.38
13765;BME280;6953;48.810;9.204;2023-03-19T00:08:26;98234.78;;;11.38;80.16
13765;BME280;6953;48.810;9.204;2023-03-19T00:10:52;98156.56;;;11.02;79.44
13765;BME280;6953;48.810;9.204;2023-03-19T00:13:17;98169.56;;;11.18;79.23
13765;BME280;6953;48.810;9.204;2023-03-19T00:15:43;98448.97;;;12.79;79.19
13765;BME280;6953;48.810;9.204;2023-03-19T00:18:09;98217.31;;;11.50;78.78
13765;BME280;6953;48.810;9.204;2023-03-19T00:20:34;98428.31;;;12.73;79.00
13765;BME280;6953;48.810;9.204;2023-03-19T00:23:00;98389.25;;;12.41;79.05
13765;BME280;6953;48.810;9.204;2023-03-19T00:25:25;98394.84;;;12.49;78.87
13765;BME280;6953;48.810;9.204;2023-03-19T00:27:51;98335.34;;;12.08;79.23
13765;BME280;6953;48.810;9.204;2023-03-19T00:30:18;98427.81;;;12.54;79.68
13765;BME280;6953;48.810;9.204;2023-03-19T00:32:44;98447.28;;;12.52;79.81
13765;BME280;6953;48.810;9.204;2023-03-19T00:35:09;98426.47;;;12.35;79.60
13765;BME280;6953;48.810;9.204;2023-03-19T00:37:35;98436.25;;;12.33;80.00
13765;BME280;6953;48.810;9.204;2023-03-19T00:40:02;98407.56;;;12.16;80.26
13765;BME280;6953;48.810;9.204;2023-03-19T00:42:29;98438.44;;;12.27;81.02
13765;BME280;6953;48.810;9.204;2023-03-19T00:44:54;98360.94;;;11.78;80.69
13765;BME280;6953;48.810;9.204;2023-03-19T00:47:20;98445.19;;;12.31;80.67
13765;BME280;6953;48.810;9.204;2023-03-19T00:49:46;98425.09;;;12.16;80.70
13765;BME280;6953;48.810;9.204;2023-03-19T00:52:12;98488.75;;;12.35;80.57
13765;BME280;6953;48.810;9.204;2023-03-19T00:54:37;98207.19;;;10.90;80.19
13765;BME280;6953;48.810;9.204;2023-03-19T00:57:02;98276.69;;;11.39;80.18
13765;BME280;6953;48.810;9.204;2023-03-19T00:59:27;98466.34;;;12.55;80.00
13765;BME280;6953;48.810;9.204;2023-03-19T01:01:53;98451.97;;;12.61;79.50
13765;BME280;6953;48.810;9.204;2023-03-19T01:04:18;98475.53;;;12.62;79.46
13765;BME280;6953;48.810;9.204;2023-03-19T01:06:44;98218.66;;;11.30;79.91
13765;BME280;6953;48.810;9.204;2023-03-19T01:09:09;98449.97;;;12.64;80.30
13765;BME280;6953;48.810;9.204;2023-03-19T01:11:35;98424.47;;;12.52;79.81
13765;BME280;6953;48.810;9.204;2023-03-19T01:14:00;98302.63;;;11.85;79.64
13765;BME280;6953;48.810;9.204;2023-03-19T01:16:27;98459.81;;;12.75;79.24
13765;BME280;6953;48.810;9.204;2023-03-19T01:18:52;98222.09;;;11.44;78.76
13765;BME280;6953;48.810;9.204;2023-03-19T01:21:18;98192.66;;;11.39;78.53
13765;BME280;6953;48.810;9.204;2023-03-19T01:23:44;98468.56;;;13.02;78.66
13765;BME280;6953;48.810;9.204;2023-03-19T01:26:09;98375.19;;;12.54;78.21
13765;BME280;6953;48.810;9.204;2023-03-19T01:28:34;98448.97;;;13.06;78.38
13765;BME280;6953;48.810;9.204;2023-03-19T01:31:01;98464.78;;;13.18;78.42
13765;BME280;6953;48.810;9.204;2023-03-19T01:33:30;98500.66;;;13.21;78.25
13765;BME280;6953;48.810;9.204;2023-03-19T01:35:55;98454.97;;;13.08;78.48
13765;BME280;6953;48.810;9.204;2023-03-19T01:38:22;98239.66;;;11.84;77.95
13765;BME280;6953;48.810;9.204;2023-03-19T01:40:47;98499.72;;;13.22;78.26
13765;BME280;6953;48.810;9.204;2023-03-19T01:45:41;98482.25;;;13.07;79.40
13765;BME280;6953;48.810;9.204;2023-03-19T01:50:52;98424.19;;;12.69;79.34
13765;BME280;6953;48.810;9.204;2023-03-19T01:53:22;98527.91;;;13.07;79.55
13765;BME280;6953;48.810;9.204;2023-03-19T01:55:49;98500.19;;;13.02;80.53
13765;BME280;6953;48.810;9.204;2023-03-19T01:58:14;98510.03;;;12.98;80.68
13765;BME280;6953;48.810;9.204;2023-03-19T02:00:40;98516.72;;;13.04;80.87
13765;BME280;6953;48.810;9.204;2023-03-19T02:03:07;98446.94;;;12.70;80.71
13765;BME280;6953;48.810;9.204;2023-03-19T02:05:33;98261.00;;;11.65;80.01
13765;BME280;6953;48.810;9.204;2023-03-19T02:08:04;98498.41;;;13.15;79.99
13765;BME280;6953;48.810;9.204;2023-03-19T02:10:30;98271.03;;;11.73;79.66
13765;BME280;6953;48.810;9.204;2023-03-19T02:12:56;98512.88;;;13.22;79.37
13765;BME280;6953;48.810;9.204;2023-03-19T02:15:21;98455.06;;;12.94;79.75
13765;BME280;6953;48.810;9.204;2023-03-19T02:17:47;98418.81;;;12.71;79.64
13765;BME280;6953;48.810;9.204;2023-03-19T02:20:30;98500.47;;;13.24;79.49
13765;BME280;6953;48.810;9.204;2023-03-19T02:28:12;98424.31;;;12.80;78.85
13765;BME280;6953;48.810;9.204;2023-03-19T02:30:41;98524.78;;;13.27;79.50
13765;BME280;6953;48.810;9.204;2023-03-19T02:33:16;98224.28;;;11.24;80.73
13765;BME280;6953;48.810;9.204;2023-03-19T02:35:46;98574.88;;;12.73;82.67
13765;BME280;6953;48.810;9.204;2023-03-19T02:38:13;98520.91;;;12.26;84.80
13765;BME280;6953;48.810;9.204;2023-03-19T02:40:46;98213.91;;;10.52;87.20
13765;BME280;6953;48.810;9.204;2023-03-19T02:43:14;98522.41;;;12.30;89.13
13765;BME280;6953;48.810;9.204;2023-03-19T02:45:39;98437.72;;;11.83;90.85
13765;BME280;6953;48.810;9.204;2023-03-19T02:48:05;98513.47;;;12.32;93.10
13765;BME280;6953;48.810;9.204;2023-03-19T02:50:31;98508.41;;;12.29;96.00
13765;BME280;6953;48.810;9.204;2023-03-19T02:52:56;98508.88;;;12.22;97.47
13765;BME280;6953;48.810;9.204;2023-03-19T02:55:22;98512.75;;;12.02;98.24
13765;BME280;6953;48.810;9.204;2023-03-19T02:57:47;98494.06;;;12.07;98.64
13765;BME280;6953;48.810;9.204;2023-03-19T03:00:13;98513.50;;;12.18;99.20
13765;BME280;6953;48.810;9.204;2023-03-19T03:02:38;98520.63;;;12.16;100.00
13765;BME280;6953;48.810;9.204;2023-03-19T03:05:05;98176.19;;;10.12;100.00
13765;BME280;6953;48.810;9.204;2023-03-19T03:07:31;98530.97;;;12.19;100.00
13765;BME280;6953;48.810;9.204;2023-03-19T03:09:57;98535.75;;;12.27;100.00
13765;BME280;6953;48.810;9.204;2023-03-19T03:12:22;98529.63;;;12.26;100.00
13765;BME280;6953;48.810;9.204;2023-03-19T03:14:47;98537.72;;;12.23;100.00
13765;BME280;6953;48.810;9.204;2023-03-19T03:17:13;98464.19;;;11.80;100.00
13765;BME280;6953;48.810;9.204;2023-03-19T03:19:39;98526.09;;;12.13;100.00
13765;BME280;6953;48.810;9.204;2023-03-19T03:22:04;98523.56;;;12.12;100.00
13765;BME280;6953;48.810;9.204;2023-03-19T03:24:30;98532.28;;;12.12;100.00
13765;BME280;6953;48.810;9.204;2023-03-19T03:26:56;98528.16;;;11.94;100.00
13765;BME280;6953;48.810;9.204;2023-03-19T03:29:21;98558.75;;;12.09;100.00
13765;BME280;6953;48.810;9.204;2023-03-19T03:31:46;98549.28;;;12.07;100.00
13765;BME280;6953;48.810;9.204;2023-03-19T03:34:12;98530.13;;;12.05;100.00
13765;BME280;6953;48.810;9.204;2023-03-19T03:36:37;98497.72;;;11.90;100.00
13765;BME280;6953;48.810;9.204;2023-03-19T03:39:03;98515.84;;;11.95;100.00
13765;BME280;6953;48.810;9.204;2023-03-19T03:41:29;98537.38;;;12.01;100.00
13765;BME280;6953;48.810;9.204;2023-03-19T03:43:54;98533.03;;;12.00;100.00
13765;BME280;6953;48.810;9.204;2023-03-19T03:46:20;98471.03;;;11.54;100.00
13765;BME280;6953;48.810;9.204;2023-03-19T03:48:45;98468.78;;;11.62;100.00
13765;BME280;6953;48.810;9.204;2023-03-19T03:51:13;98537.44;;;12.00;100.00
13765;BME280;6953;48.810;9.204;2023-03-19T03:53:39;98455.78;;;11.45;100.00
13765;BME280;6953;48.810;9.204;2023-03-19T03:56:04;98262.81;;;10.24;100.00
13765;BME280;6953;48.810;9.204;2023-03-19T03:58:30;98580.44;;;11.85;100.00
13765;BME280;6953;48.810;9.204;2023-03-19T04:00:55;98551.00;;;11.64;100.00
13765;BME280;6953;48.810;9.204;2023-03-19T04:03:21;98319.38;;;10.43;100.00
13765;BME280;6953;48.810;9.204;2023-03-19T04:05:48;98546.03;;;11.74;100.00
13765;BME280;6953;48.810;9.204;2023-03-19T04:08:13;98548.66;;;11.74;100.00
13765;BME280;6953;48.810;9.204;2023-03-19T04:10:40;98541.06;;;11.69;100.00
13765;BME280;6953;48.810;9.204;2023-03-19T04:13:07;98553.84;;;11.75;100.00
13765;BME280;6953;48.810;9.204;2023-03-19T04:15:33;98468.78;;;11.19;100.00
13765;BME280;6953;48.810;9.204;2023-03-19T04:17:58;98557.69;;;11.70;100.00
13765;BME280;6953;48.810;9.204;2023-03-19T04:20:24;98543.31;;;11.61;100.00
13765;BME280;6953;48.810;9.204;2023-03-19T04:22:49;98533.06;;;11.57;100.00
13765;BME280;6953;48.810;9.204;2023-03-19T04:25:15;98560.22;;;11.71;100.00
13765;BME280;6953;48.810;9.204;2023-03-19T04:27:41;98528.66;;;11.28;100.00
13765;BME280;6953;48.810;9.204;2023-03-19T04:30:07;98346.34;;;10.45;100.00
13765;BME280;6953;48.810;9.204;2023-03-19T04:32:33;98564.66;;;11.71;100.00
13765;BME280;6953;48.810;9.204;2023-03-19T04:34:59;98610.25;;;11.70;100.00
13765;BME280;6953;48.810;9.204;2023-03-19T04:37:25;98292.66;;;10.08;100.00
13765;BME280;6953;48.810;9.204;2023-03-19T04:39:51;98496.63;;;11.22;100.00
13765;BME280;6953;48.810;9.204;2023-03-19T04:42:18;98569.50;;;11.63;100.00
13765;BME280;6953;48.810;9.204;2023-03-19T04:44:43;98528.28;;;11.34;100.00
13765;BME280;6953;48.810;9.204;2023-03-19T04:47:09;98573.34;;;11.57;100.00
13765;BME280;6953;48.810;9.204;2023-03-19T04:49:34;98578.66;;;11.56;100.00
13765;BME280;6953;48.810;9.204;2023-03-19T04:52:00;98538.88;;;11.33;100.00
13765;BME280;6953;48.810;9.204;2023-03-19T04:54:26;98311.63;;;9.96;100.00
13765;BME280;6953;48.810;9.204;2023-03-19T04:56:53;98595.78;;;11.47;100.00
13765;BME280;6953;48.810;9.204;2023-03-19T04:59:18;98580.69;;;11.51;100.00
13765;BME280;6953;48.810;9.204;2023-03-19T05:01:43;98586.03;;;11.49;100.00
13765;BME280;6953;48.810;9.204;2023-03-19T05:04:09;98474.03;;;10.90;100.00
13765;BME280;6953;48.810;9.204;2023-03-19T05:06:35;98612.91;;;11.54;100.00
13765;BME280;6953;48.810;9.204;2023-03-19T05:09:02;98627.03;;;11.67;100.00
13765;BME280;6953;48.810;9.204;2023-03-19T05:11:28;98592.88;;;11.67;100.00
13765;BME280;6953;48.810;9.204;2023-03-19T05:13:54;98580.09;;;11.61;100.00
13765;BME280;6953;48.810;9.204;2023-03-19T05:16:19;98601.84;;;11.63;100.00
13765;BME280;6953;48.810;9.204;2023-03-19T05:18:45;98342.84;;;10.16;100.00
13765;BME280;6953;48.810;9.204;2023-03-19T05:21:12;98588.00;;;11.61;100.00
13765;BME280;6953;48.810;9.204;2023-03-19T05:23:38;98608.75;;;11.66;100.00
13765;BME280;6953;48.810;9.204;2023-03-19T05:26:04;98537.72;;;11.23;100.00
13765;BME280;6953;48.810;9.204;2023-03-19T05:28:31;98604.41;;;11.49;100.00
13765;BME280;6953;48.810;9.204;2023-03-19T05:30:56;98270.94;;;9.59;100.00
13765;BME280;6953;48.810;9.204;2023-03-19T05:33:22;98598.91;;;11.54;100.00
13765;BME280;6953;48.810;9.204;2023-03-19T05:35:47;98619.69;;;11.43;100.00
13765;BME280;6953;48.810;9.204;2023-03-19T05:38:13;98576.69;;;11.30;100.00
13765;BME280;6953;48.810;9.204;2023-03-19T05:40:38;98640.25;;;11.50;100.00
13765;BME280;6953;48.810;9.204;2023-03-19T05:43:06;98606.88;;;11.52;100.00
13765;BME280;6953;48.810;9.204;2023-03-19T05:45:32;98608.63;;;11.52;100.00
13765;BME280;6953;48.810;9.204;2023-03-19T05:47:57;98595.28;;;11.41;100.00
13765;BME280;6953;48.810;9.204;2023-03-19T05:50:22;98609.78;;;11.48;100.00
13765;BME280;6953;48.810;9.204;2023-03-19T05:52:48;98604.69;;;11.45;100.00
13765;BME280;6953;48.810;9.204;2023-03-19T05:55:13;98613.50;;;11.44;100.00
13765;BME280;6953;48.810;9.204;2023-03-19T05:57:39;98619.59;;;11.44;100.00
13765;BME280;6953;48.810;9.204;2023-03-19T06:00:05;98318.34;;;9.70;100.00
13765;BME280;6953;48.810;9.204;2023-03-19T06:02:32;98566.88;;;11.18;100.00
13765;BME280;6953;48.810;9.204;2023-03-19T06:04:57;98594.97;;;11.32;100.00
13765;BME280;6953;48.810;9.204;2023-03-19T06:07:23;98624.97;;;11.28;100.00
13765;BME280;6953;48.810;9.204;2023-03-19T06:09:48;98627.88;;;11.52;100.00
13765;BME280;6953;48.810;9.204;2023-03-19T06:12:13;98560.03;;;11.16;100.00
13765;BME280;6953;48.810;9.204;2023-03-19T06:14:40;98633.97;;;11.68;100.00
13765;BME280;6953;48.810;9.204;2023-03-19T06:17:05;98322.72;;;9.85;100.00
13765;BME280;6953;48.810;9.204;2023-03-19T06:19:31;98433.66;;;10.47;100.00
13765;BME280;6953;48.810;9.204;2023-03-19T06:21:56;98633.81;;;11.71;100.00
13765;BME280;6953;48.810;9.204;2023-03-19T06:24:22;98641.59;;;11.73;100.00
13765;BME280;6953;48.810;9.204;2023-03-19T06:26:47;98364.09;;;10.11;100.00
13765;BME280;6953;48.810;9.204;2023-03-19T06:29:12;98668.47;;;11.78;100.00
13765;BME280;6953;48.810;9.204;2023-03-19T06:31:38;98630.72;;;11.79;100.00
13765;BME280;6953;48.810;9.204;2023-03-19T06:34:06;98611.66;;;11.75;100.00
13765;BME280;6953;48.810;9.204;2023-03-19T06:36:31;98405.19;;;10.55;100.00
13765;BME280;6953;48.810;9.204;2023-03-19T06:38:56;98641.84;;;11.98;100.00
13765;BME280;6953;48.810;9.204;2023-03-19T06:41:22;98584.06;;;11.68;100.00
13765;BME280;6953;48.810;9.204;2023-03-19T06:43:49;98654.28;;;12.10;100.00
13765;BME280;6953;48.810;9.204;2023-03-19T06:46:15;98632.31;;;12.11;100.00
13765;BME280;6953;48.810;9.204;2023-03-19T06:48:40;98633.59;;;12.04;100.00
13765;BME280;6953;48.810;9.204;2023-03-19T06:51:06;98634.75;;;12.14;100.00
13765;BME280;6953;48.810;9.204;2023-03-19T06:53:32;98645.19;;;12.29;100.00
13765;BME280;6953;48.810;9.204;2023-03-19T06:55:57;98643.31;;;12.45;100.00
13765;BME280;6953;48.810;9.204;2023-03-19T06:58:22;98646.25;;;12.68;100.00
13765;BME280;6953;48.810;9.204;2023-03-19T07:00:48;98441.19;;;11.69;100.00
13765;BME280;6953;48.810;9.204;2023-03-19T07:03:13;98640.66;;;13.15;98.84
13765;BME280;6953;48.810;9.204;2023-03-19T07:05:38;98345.09;;;11.51;97.01
13765;BME280;6953;48.810;9.204;2023-03-19T07:08:04;98630.81;;;13.45;96.63
13765;BME280;6953;48.810;9.204;2023-03-19T07:10:36;98543.38;;;13.12;95.47
13765;BME280;6953;48.810;9.204;2023-03-19T07:13:02;98640.94;;;13.89;94.54
13765;BME280;6953;48.810;9.204;2023-03-19T07:15:28;98642.66;;;14.03;93.55
13765;BME280;6953;48.810;9.204;2023-03-19T07:17:53;98647.19;;;14.01;92.10
13765;BME280;6953;48.810;9.204;2023-03-19T07:20:18;98407.34;;;12.72;91.37
13765;BME280;6953;48.810;9.204;2023-03-19T07:22:44;98642.50;;;14.18;91.33
13765;BME280;6953;48.810;9.204;2023-03-19T07:25:09;98648.41;;;14.22;90.22
13765;BME280;6953;48.810;9.204;2023-03-19T07:27:35;98666.03;;;14.21;89.73
13765;BME280;6953;48.810;9.204;2023-03-19T07:30:00;98407.50;;;12.83;89.23
13765;BME280;6953;48.810;9.204;2023-03-19T07:32:25;98655.59;;;14.32;88.62
13765;BME280;6953;48.810;9.204;2023-03-19T07:34:51;98682.13;;;14.43;87.89
13765;BME280;6953;48.810;9.204;2023-03-19T07:37:16;98597.31;;;14.23;87.16
13765;BME280;6953;48.810;9.204;2023-03-19T07:39:42;98648.00;;;14.65;86.43
13765;BME280;6953;48.810;9.204;2023-03-19T07:42:07;98652.00;;;14.70;86.18
13765;BME280;6953;48.810;9.204;2023-03-19T07:44:32;98450.72;;;13.56;85.84
13765;BME280;6953;48.810;9.204;2023-03-19T07:46:58;98471.63;;;13.72;85.26
13765;BME280;6953;48.810;9.204;2023-03-19T07:49:23;98656.63;;;14.92;85.11
13765;BME280;6953;48.810;9.204;2023-03-19T07:51:48;98645.22;;;14.79;85.02
13765;BME280;6953;48.810;9.204;2023-03-19T07:54:14;98689.56;;;15.11;84.86
13765;BME280;6953;48.810;9.204;2023-03-19T07:56:39;98671.34;;;15.19;84.36
13765;BME280;6953;48.810;9.204;2023-03-19T07:59:05;98426.88;;;13.83;83.70
13765;BME280;6953;48.810;9.204;2023-03-19T08:01:31;98676.88;;;15.29;84.03
13765;BME280;6953;48.810;9.204;2023-03-19T08:03:56;98665.03;;;15.34;83.34
13765;BME280;6953;48.810;9.204;2023-03-19T08:06:21;98596.25;;;14.98;83.47
13765;BME280;6953;48.810;9.204;2023-03-19T08:08:47;98668.44;;;15.47;82.95
13765;BME280;6953;48.810;9.204;2023-03-19T08:11:13;98605.00;;;15.11;82.20
13765;BME280;6953;48.810;9.204;2023-03-19T08:13:38;98650.31;;;15.30;82.02
13765;BME280;6953;48.810;9.204;2023-03-19T08:16:04;98527.88;;;14.70;81.94
13765;BME280;6953;48.810;9.204;2023-03-19T08:18:30;98608.75;;;15.32;81.32
13765;BME280;6953;48.810;9.204;2023-03-19T08:20:55;98624.75;;;15.54;80.78
13765;BME280;6953;48.810;9.204;2023-03-19T08:23:21;98661.03;;;16.10;79.59
13765;BME280;6953;48.810;9.204;2023-03-19T08:25:47;98667.69;;;16.15;79.42
13765;BME280;6953;48.810;9.204;2023-03-19T08:28:15;98584.13;;;15.55;79.17
13765;BME280;6953;48.810;9.204;2023-03-19T08:30:41;98666.63;;;15.94;79.23
13765;BME280;6953;48.810;9.204;2023-03-19T08:33:06;98660.16;;;15.98;79.43
13765;BME280;6953;48.810;9.204;2023-03-19T08:35:32;98669.13;;;16.08;78.60
13765;BME280;6953;48.810;9.204;2023-03-19T08:37:58;98658.53;;;16.08;78.27
13765;BME280;6953;48.810;9.204;2023-03-19T08:40:23;98666.13;;;16.24;78.63
13765;BME280;6953;48.810;9.204;2023-03-19T08:42:49;98662.94;;;16.31;78.08
13765;BME280;6953;48.810;9.204;2023-03-19T08:45:15;98674.41;;;16.43;77.42
13765;BME280;6953;48.810;9.204;2023-03-19T08:47:41;98645.63;;;16.38;77.66
13765;BME280;6953;48.810;9.204;2023-03-19T08:50:07;98603.97;;;16.40;76.70
13765;BME280;6953;48.810;9.204;2023-03-19T08:52:33;98703.50;;;16.99;75.60
13765;BME280;6953;48.810;9.204;2023-03-19T08:54:58;98653.00;;;17.11;74.32
13765;BME280;6953;48.810;9.204;2023-03-19T08:57:23;98676.25;;;17.30;73.61
13765;BME280;6953;48.810;9.204;2023-03-19T08:59:51;98569.91;;;17.01;72.75
13765;BME280;6953;48.810;9.204;2023-03-19T09:02:17;98681.72;;;18.24;70.47
13765;BME280;6953;48.810;9.204;2023-03-19T09:04:42;98682.69;;;18.64;68.88
13765;BME280;6953;48.810;9.204;2023-03-19T09:07:08;98707.03;;;18.89;68.14
13765;BME280;6953;48.810;9.204;2023-03-19T09:09:40;98704.16;;;19.01;67.12
13765;BME280;6953;48.810;9.204;2023-03-19T09:12:06;98676.72;;;19.01;67.11
13765;BME280;6953;48.810;9.204;2023-03-19T09:14:33;98689.91;;;19.42;66.30
13765;BME280;6953;48.810;9.204;2023-03-19T09:16:58;98687.72;;;20.24;62.74
13765;BME280;6953;48.810;9.204;2023-03-19T09:19:23;98694.97;;;21.78;57.20
13765;BME280;6953;48.810;9.204;2023-03-19T09:21:49;98590.78;;;23.72;49.01
13765;BME280;6953;48.810;9.204;2023-03-19T09:24:15;98512.50;;;25.18;42.88
13765;BME280;6953;48.810;9.204;2023-03-19T09:26:40;98661.22;;;27.35;39.16
13765;BME280;6953;48.810;9.204;2023-03-19T09:29:05;98683.53;;;27.57;37.10
13765;BME280;6953;48.810;9.204;2023-03-19T09:31:31;98704.44;;;28.55;34.73
13765;BME280;6953;48.810;9.204;2023-03-19T09:33:56;98639.94;;;29.21;31.69
13765;BME280;6953;48.810;9.204;2023-03-19T09:36:22;98689.91;;;28.98;32.76
13765;BME280;6953;48.810;9.204;2023-03-19T09:38:47;98673.75;;;28.06;34.12
13765;BME280;6953;48.810;9.204;2023-03-19T09:46:52;98661.88;;;28.01;33.52
13765;BME280;6953;48.810;9.204;2023-03-19T09:49:29;98671.41;;;28.18;33.96
13765;BME280;6953;48.810;9.204;2023-03-19T09:52:01;98683.91;;;28.40;33.05
13765;BME280;6953;48.810;9.204;2023-03-19T09:56:53;98659.75;;;32.21;25.74
13765;BME280;6953;48.810;9.204;2023-03-19T09:59:21;98644.06;;;32.85;24.26
13765;BME280;6953;48.810;9.204;2023-03-19T10:01:59;98670.31;;;30.83;26.06
13765;BME280;6953;48.810;9.204;2023-03-19T10:13:16;98674.03;;;27.33;32.72
13765;BME280;6953;48.810;9.204;2023-03-19T10:15:43;98671.78;;;31.18;26.13
13765;BME280;6953;48.810;9.204;2023-03-19T10:18:17;98675.19;;;33.37;22.43
13765;BME280;6953;48.810;9.204;2023-03-19T10:20:54;98678.41;;;34.35;21.22
13765;BME280;6953;48.810;9.204;2023-03-19T10:23:29;98563.09;;;33.65;20.76
13765;BME280;6953;48.810;9.204;2023-03-19T10:25:58;98682.75;;;34.84;20.42
13765;BME280;6953;48.810;9.204;2023-03-19T10:28:25;98612.81;;;35.24;19.64
13765;BME280;6953;48.810;9.204;2023-03-19T10:31:01;98689.91;;;36.66;18.18
13765;BME280;6953;48.810;9.204;2023-03-19T10:33:41;98689.59;;;36.24;18.40
13765;BME280;6953;48.810;9.204;2023-03-19T10:36:09;98692.91;;;35.86;19.21
13765;BME280;6953;48.810;9.204;2023-03-19T10:38:42;98704.91;;;34.76;19.93
13765;BME280;6953;48.810;9.204;2023-03-19T10:41:32;98481.03;;;34.02;19.82
13765;BME280;6953;48.810;9.204;2023-03-19T10:44:09;98667.94;;;34.50;19.03
13765;BME280;6953;48.810;9.204;2023-03-19T10:46:37;98680.16;;;33.83;20.43
13765;BME280;6953;48.810;9.204;2023-03-19T10:49:03;98524.41;;;32.11;20.16
13765;BME280;6953;48.810;9.204;2023-03-19T10:51:28;98488.31;;;32.04;20.76
13765;BME280;6953;48.810;9.204;2023-03-19T10:53:54;98505.25;;;33.33;18.48
13765;BME280;6953;48.810;9.204;2023-03-19T10:56:25;98514.19;;;33.40;18.10
13765;BME280;6953;48.810;9.204;2023-03-19T10:59:05;98647.06;;;33.43;18.77
13765;BME280;6953;48.810;9.204;2023-03-19T11:01:39;98664.50;;;32.69;19.35
13765;BME280;6953;48.810;9.204;2023-03-19T11:04:15;98650.16;;;32.80;19.08
13765;BME280;6953;48.810;9.204;2023-03-19T11:06:50;98656.56;;;32.92;19.00
13765;BME280;6953;48.810;9.204;2023-03-19T11:09:29;98617.88;;;33.32;18.43
13765;BME280;6953;48.810;9.204;2023-03-19T11:12:05;98650.19;;;33.47;18.46
13765;BME280;6953;48.810;9.204;2023-03-19T11:14:35;98662.06;;;32.55;18.79
13765;BME280;6953;48.810;9.204;2023-03-19T11:17:25;98646.50;;;31.93;19.78
13765;BME280;6953;48.810;9.204;2023-03-19T11:19:56;98646.34;;;31.89;20.11
13765;BME280;6953;48.810;9.204;2023-03-19T11:22:27;98648.44;;;32.30;19.89
13765;BME280;6953;48.810;9.204;2023-03-19T11:24:59;98642.97;;;32.92;18.99
13765;BME280;6953;48.810;9.204;2023-03-19T11:27:32;98640.91;;;32.26;19.40
13765;BME280;6953;48.810;9.204;2023-03-19T11:29:59;98518.63;;;31.20;20.08
13765;BME280;6953;48.810;9.204;2023-03-19T11:33:02;98634.22;;;31.28;20.54
13765;BME280;6953;48.810;9.204;2023-03-19T11:36:00;98576.53;;;29.70;21.69
13765;BME280;6953;48.810;9.204;2023-03-19T11:55:21;98611.66;;;33.97;17.97
13765;BME280;6953;48.810;9.204;2023-03-19T12:00:46;98639.88;;;31.07;20.75
13765;BME280;6953;48.810;9.204;2023-03-19T12:03:22;98634.00;;;29.79;21.92
13765;BME280;6953;48.810;9.204;2023-03-19T12:05:55;98567.50;;;29.04;22.59
13765;BME280;6953;48.810;9.204;2023-03-19T12:08:35;98603.41;;;28.98;22.64
13765;BME280;6953;48.810;9.204;2023-03-19T12:11:16;98312.97;;;27.46;22.70
13765;BME280;6953;48.810;9.204;2023-03-19T12:27:38;98376.97;;;27.16;23.34
13765;BME280;6953;48.810;9.204;2023-03-19T12:30:22;98390.66;;;26.50;24.43
13765;BME280;6953;48.810;9.204;2023-03-19T12:35:46;98579.81;;;27.60;24.32
13765;BME280;6953;48.810;9.204;2023-03-19T12:41:02;98583.28;;;27.54;24.78
13765;BME280;6953;48.810;9.204;2023-03-19T12:46:27;98555.75;;;26.29;26.68
13765;BME280;6953;48.810;9.204;2023-03-19T12:51:34;98521.25;;;25.65;27.93
13765;BME280;6953;48.810;9.204;2023-03-19T12:54:04;98555.97;;;25.74;28.06
13765;BME280;6953;48.810;9.204;2023-03-19T13:04:59;98543.03;;;22.35;37.68
13765;BME280;6953;48.810;9.204;2023-03-19T13:07:47;98463.78;;;20.97;41.00
13765;BME280;6953;48.810;9.204;2023-03-19T13:10:18;98546.75;;;20.21;46.69
13765;BME280;6953;48.810;9.204;2023-03-19T13:12:45;98366.94;;;18.09;51.40
13765;BME280;6953;48.810;9.204;2023-03-19T13:15:18;98570.72;;;18.27;57.73
13765;BME280;6953;48.810;9.204;2023-03-19T13:20:53;98441.69;;;15.62;67.37
13765;BME280;6953;48.810;9.204;2023-03-19T13:23:25;98559.03;;;15.71;69.60
13765;BME280;6953;48.810;9.204;2023-03-19T13:25:54;98627.19;;;15.68;74.12
13765;BME280;6953;48.810;9.204;2023-03-19T13:28:29;98478.22;;;14.75;77.63
13765;BME280;6953;48.810;9.204;2023-03-19T13:31:32;98574.88;;;15.95;82.59
13765;BME280;6953;48.810;9.204;2023-03-19T13:34:02;98589.06;;;16.50;77.05
13765;BME280;6953;48.810;9.204;2023-03-19T13:36:29;98588.09;;;16.73;76.68
13765;BME280;6953;48.810;9.204;2023-03-19T13:38:56;98361.72;;;15.47;75.55
13765;BME280;6953;48.810;9.204;2023-03-19T13:45:01;98568.44;;;16.97;75.05
13765;BME280;6953;48.810;9.204;2023-03-19T13:52:38;98579.63;;;16.24;78.88
13765;BME280;6953;48.810;9.204;2023-03-19T13:58:17;98604.16;;;17.36;74.42
13765;BME280;6953;48.810;9.204;2023-03-19T14:01:01;98593.41;;;17.79;71.78
13765;BME280;6953;48.810;9.204;2023-03-19T14:03:32;98578.53;;;17.88;71.55
13765;BME280;6953;48.810;9.204;2023-03-19T14:05:58;98526.88;;;17.29;72.41
13765;BME280;6953;48.810;9.204;2023-03-19T14:08:27;98585.84;;;17.33;73.96
13765;BME280;6953;48.810;9.204;2023-03-19T14:11:01;98554.75;;;17.24;74.49
13765;BME280;6953;48.810;9.204;2023-03-19T14:13:28;98621.66;;;17.27;75.54
13765;BME280;6953;48.810;9.204;2023-03-19T14:16:04;98476.16;;;16.49;77.34
13765;BME280;6953;48.810;9.204;2023-03-19T14:18:30;98584.91;;;17.23;78.89
13765;BME280;6953;48.810;9.204;2023-03-19T14:21:03;98579.81;;;17.42;77.79
13765;BME280;6953;48.810;9.204;2023-03-19T14:23:30;98556.09;;;17.61;76.10
13765;BME280;6953;48.810;9.204;2023-03-19T14:26:02;98568.94;;;17.96;74.97
13765;BME280;6953;48.810;9.204;2023-03-19T14:29:10;98567.13;;;18.17;75.05
13765;BME280;6953;48.810;9.204;2023-03-19T14:37:03;98582.28;;;18.06;74.04
13765;BME280;6953;48.810;9.204;2023-03-19T14:39:38;98568.63;;;17.70;74.18
13765;BME280;6953;48.810;9.204;2023-03-19T14:42:10;98598.88;;;17.67;76.29
13765;BME280;6953;48.810;9.204;2023-03-19T14:44:44;98440.91;;;16.80;77.33
13765;BME280;6953;48.810;9.204;2023-03-19T14:52:51;98315.69;;;15.50;75.12
13765;BME280;6953;48.810;9.204;2023-03-19T14:55:18;98498.16;;;16.61;73.94
13765;BME280;6953;48.810;9.204;2023-03-19T14:57:44;98587.53;;;17.45;71.09